Список аэропортов
Фактическая погода:

21 августа, 07:00
Температура: +20°C (+20.0*)
Ветер: западный 1 м/с
Давление: *768 мм
Без существ. явл.
Время (МСК)Темп. СВетерВлажностьДавлениеОблачностьОсадки
03:00+14Штиль 100%1025 гПамалооблачно
04:00+13Штиль 100%1025 гПамалооблачно
05:00+13Штиль 100%1025 гПамалооблачно
06:00+16Штиль 98%1025 гПамалооблачно
07:00+19Штиль 86%1025 гПаясно
08:00+22СЗ, 2 м/с64%1024 гПаясно
09:00+25З, 2 м/с52%1024 гПаясно
10:00+27З, 2 м/с44%1024 гПаясно
11:00+28ЮЗ, 2 м/с39%1024 гПаясно
12:00+28ЮЗ, 2 м/с37%1024 гПаясно
13:00+29ЮЗ, 2 м/с36%1024 гПаясно
14:00+29ЮЗ, 2 м/с35%1023 гПаясно
15:00+29ЮЗ, 2 м/с35%1023 гПаясно
16:00+29ЮЗ, 2 м/с36%1022 гПаясно
17:00+28З, 2 м/с38%1022 гПаясно
18:00+27З, 2 м/с42%1022 гПаясно
19:00+24З, 1 м/с59%1022 гПаясно
20:00+22ЮЗ, 1 м/с68%1022 гПаясно
21:00+20ЮВ, 1 м/с75%1022 гПаясно
22:00+19ЮВ, 1 м/с80%1022 гПаясно
23:00+18В, 1 м/с84%1022 гПаясно
22 августа
00:00+17В, 1 м/с85%1022 гПаясно
01:00+17СВ, 1 м/с85%1022 гПаясно
02:00+17СВ, 2 м/с82%1022 гПаясно
03:00+16СВ, 2 м/с84%1023 гПаясно
04:00+15СВ, 2 м/с89%1022 гПаясно
05:00+15СВ, 2 м/с92%1023 гПаясно
06:00+16СВ, 2 м/с86%1023 гПаясно
07:00+20В, 2 м/с71%1023 гПаясно
08:00+23В, 2 м/с59%1022 гПаясно
09:00+26В, 1 м/с50%1022 гПаясно
10:00+28В, 2 м/с41%1022 гПаясно
11:00+29ЮВ, 3 м/с38%1021 гПамалооблачно
12:00+30ЮВ, 4 м/с37%1021 гПас прояснениями
13:00+30ЮВ, 4 м/с36%1020 гПамалооблачно
14:00+30ЮВ, 5 м/с37%1020 гПамалооблачно
15:00+29ЮВ, 5 м/с39%1020 гПамалооблачно
16:00+29ЮВ, 5 м/с41%1019 гПаясно
17:00+28ЮВ, 5 м/с39%1019 гПаясно
18:00+27ЮВ, 3 м/с41%1019 гПаясно
19:00+24В, 2 м/с55%1019 гПаясно
20:00+22В, 2 м/с63%1019 гПаясно
21:00+22В, 3 м/с67%1019 гПамалооблачно
22:00+21В, 3 м/с70%1020 гПаясно
23:00+20В, 3 м/с73%1019 гПамалооблачно
23 августа
00:00+20ЮВ, 3 м/с73%1019 гПаясно
01:00+19ЮВ, 3 м/с77%1019 гПаясно
02:00+18ЮВ, 3 м/с79%1020 гПаясно
03:00+18ЮВ, 3 м/с80%1020 гПаясно